Time;durP1;ratioP1;P1;durP2;ratioP2;P2;SDS_P1;SDS_P2;PMS_P1;PMS_P2;Temp;Humidity;BMP_temperature;BMP_pressure;BME280_temperature;BME280_humidity;BME280_pressure;Samples;Min_cycle;Max_cycle;Signal;HPM_P1;HPM_P2
2024/03/07 00:00:14;;;;;;;9.47;8.30;;;;;;;7.69;80.31;93189.59;521766;28;923;-70
2024/03/07 00:00:29;;;;;;;8.90;8.00;;;;;;;7.91;80.46;93228.25;521533;28;956;-70
2024/03/07 00:00:45;;;;;;;9.25;8.05;;;;;;;7.92;80.37;93220.75;521707;28;813;-70
2024/03/07 00:01:02;;;;;;;9.63;8.33;;;;;;;7.94;80.50;93223.72;521737;28;837;-70
2024/03/07 00:01:18;;;;;;;9.23;7.88;;;;;;;7.97;80.46;93219.91;521609;28;908;-70
2024/03/07 00:01:33;;;;;;;10.23;7.82;;;;;;;7.96;80.31;93221.91;521750;28;869;-70
2024/03/07 00:01:48;;;;;;;9.40;7.93;;;;;;;7.99;80.22;93226.31;521757;28;742;-70
2024/03/07 00:02:04;;;;;;;8.55;7.70;;;;;;;8.01;80.04;93225.78;521640;28;856;-70
2024/03/07 00:02:19;;;;;;;8.90;7.73;;;;;;;7.88;79.92;93196.38;521685;28;796;-70
2024/03/07 00:02:35;;;;;;;9.05;7.80;;;;;;;8.04;79.81;93222.69;521745;28;777;-70
2024/03/07 00:02:51;;;;;;;8.77;7.80;;;;;;;8.02;79.57;93224.50;521617;28;923;-70
2024/03/07 00:03:07;;;;;;;9.18;7.63;;;;;;;8.03;79.37;93223.25;521734;28;902;-70
2024/03/07 00:03:24;;;;;;;9.23;7.43;;;;;;;8.02;79.40;93225.25;521569;28;915;-70
2024/03/07 00:03:39;;;;;;;8.88;7.68;;;;;;;8.00;79.65;93219.56;521709;27;933;-70
2024/03/07 00:03:55;;;;;;;9.13;7.80;;;;;;;8.01;79.59;93221.00;521800;28;896;-70
2024/03/07 00:04:10;;;;;;;9.33;7.83;;;;;;;7.95;79.94;93223.16;521642;28;857;-70
2024/03/07 00:04:25;;;;;;;8.83;7.83;;;;;;;7.89;80.14;93216.31;521687;28;853;-70
2024/03/07 00:04:41;;;;;;;9.45;8.05;;;;;;;7.86;80.41;93217.41;521651;28;896;-70
2024/03/07 00:04:56;;;;;;;10.40;8.37;;;;;;;7.85;80.21;93215.94;521707;28;919;-70
2024/03/07 00:05:12;;;;;;;10.05;8.38;;;;;;;7.75;80.14;93204.69;521655;28;850;-70
2024/03/07 00:05:28;;;;;;;9.43;8.20;;;;;;;7.83;80.41;93219.22;521696;28;837;-70
2024/03/07 00:05:43;;;;;;;9.07;8.18;;;;;;;7.82;80.56;93219.78;521720;28;809;-70
2024/03/07 00:05:59;;;;;;;9.53;8.53;;;;;;;7.78;80.65;93219.34;521679;28;785;-70
2024/03/07 00:06:15;;;;;;;9.68;8.35;;;;;;;7.77;81.07;93218.63;521625;28;865;-70
2024/03/07 00:06:30;;;;;;;8.93;7.82;;;;;;;7.79;81.17;93220.81;521644;28;769;-70
2024/03/07 00:06:45;;;;;;;9.67;8.27;;;;;;;7.80;81.14;93220.28;521789;28;813;-70
2024/03/07 00:07:04;;;;;;;11.30;8.82;;;;;;;7.81;81.03;93218.28;521597;28;940;-70
2024/03/07 00:07:20;;;;;;;11.32;8.63;;;;;;;7.78;81.06;93217.34;521688;28;881;-70
2024/03/07 00:07:37;;;;;;;11.32;8.20;;;;;;;7.81;81.02;93215.53;521680;28;928;-70
2024/03/07 00:07:53;;;;;;;9.48;8.27;;;;;;;7.80;81.12;93214.03;521662;28;854;-70
2024/03/07 00:08:09;;;;;;;9.88;8.88;;;;;;;7.78;81.07;93216.59;521688;28;865;-70
2024/03/07 00:08:25;;;;;;;9.88;8.70;;;;;;;7.78;81.24;93211.84;521675;28;929;-70
2024/03/07 00:08:40;;;;;;;9.20;8.20;;;;;;;7.79;81.18;93209.84;521611;28;876;-70
2024/03/07 00:08:56;;;;;;;9.48;8.45;;;;;;;7.80;81.01;93214.03;521683;28;797;-70
2024/03/07 00:09:11;;;;;;;10.10;9.00;;;;;;;7.80;80.89;93212.03;521623;28;861;-70
2024/03/07 00:09:27;;;;;;;10.27;9.27;;;;;;;7.81;81.26;93212.78;521685;28;841;-70
2024/03/07 00:09:42;;;;;;;10.53;9.47;;;;;;;7.80;81.27;93205.81;521732;28;857;-70
2024/03/07 00:09:58;;;;;;;10.63;9.53;;;;;;;7.83;81.36;93213.72;521707;28;810;-70
2024/03/07 00:10:15;;;;;;;10.82;9.70;;;;;;;7.86;81.29;93214.66;521572;28;963;-70
2024/03/07 00:10:30;;;;;;;11.57;10.32;;;;;;;7.81;81.31;93212.78;521774;28;872;-70
2024/03/07 00:10:46;;;;;;;11.97;9.83;;;;;;;7.81;81.43;93212.78;521774;28;945;-70
2024/03/07 00:11:02;;;;;;;12.00;9.43;;;;;;;7.74;81.88;93211.44;521739;28;821;-70
2024/03/07 00:11:18;;;;;;;13.20;9.60;;;;;;;7.75;81.78;93207.44;521581;28;1117;-70
2024/03/07 00:11:34;;;;;;;11.60;9.18;;;;;;;7.77;81.89;93213.13;521690;28;836;-70
2024/03/07 00:11:52;;;;;;;10.40;9.30;;;;;;;7.70;81.86;93211.03;521682;28;896;-70
2024/03/07 00:12:08;;;;;;;10.68;9.57;;;;;;;7.65;81.90;93204.41;521781;28;908;-70
2024/03/07 00:12:24;;;;;;;10.60;9.32;;;;;;;7.65;82.09;93209.91;521667;28;848;-70
2024/03/07 00:12:42;;;;;;;10.18;9.10;;;;;;;7.61;82.34;93215.00;521580;28;1997;-70
2024/03/07 00:12:58;;;;;;;10.60;9.38;;;;;;;7.61;82.90;93217.00;521678;28;897;-70
2024/03/07 00:13:13;;;;;;;12.18;9.45;;;;;;;7.63;82.70;93212.44;519425;28;829;-70
2024/03/07 00:13:29;;;;;;;11.27;9.50;;;;;;;7.64;82.57;93216.66;519446;28;877;-70
2024/03/07 00:13:44;;;;;;;10.27;9.15;;;;;;;7.57;82.49;93211.84;519513;28;829;-70
2024/03/07 00:14:00;;;;;;;10.97;8.73;;;;;;;7.63;82.43;93217.19;519419;28;770;-70
2024/03/07 00:14:16;;;;;;;11.02;8.88;;;;;;;7.65;82.56;93211.91;519523;28;826;-70
2024/03/07 00:14:31;;;;;;;10.68;8.93;;;;;;;7.69;82.30;93214.34;519343;28;841;-70
2024/03/07 00:14:47;;;;;;;10.17;8.53;;;;;;;7.68;82.27;93221.09;519525;28;758;-70
2024/03/07 00:15:03;;;;;;;10.35;8.55;;;;;;;7.70;82.28;93211.03;519878;28;782;-70
2024/03/07 00:15:19;;;;;;;10.13;8.50;;;;;;;7.42;82.14;93181.47;521660;28;773;-70
2024/03/07 00:15:34;;;;;;;9.95;8.65;;;;;;;7.61;82.05;93208.75;521673;28;837;-70
2024/03/07 00:15:50;;;;;;;10.50;9.27;;;;;;;7.62;82.18;93207.50;521644;28;778;-70
2024/03/07 00:16:05;;;;;;;10.02;9.02;;;;;;;7.39;82.09;93188.03;521723;28;852;-70
2024/03/07 00:16:21;;;;;;;9.63;8.63;;;;;;;7.64;82.11;93218.69;521649;28;798;-70
2024/03/07 00:16:36;;;;;;;9.30;8.35;;;;;;;7.63;82.25;93206.94;521669;28;1172;-70
2024/03/07 00:16:53;;;;;;;9.50;8.37;;;;;;;7.66;82.16;93210.66;521644;28;762;-70
2024/03/07 00:17:09;;;;;;;9.95;8.65;;;;;;;7.67;82.09;93206.59;521697;28;876;-70
2024/03/07 00:17:24;;;;;;;10.43;8.73;;;;;;;7.68;82.18;93213.59;521761;28;793;-70
2024/03/07 00:17:40;;;;;;;10.68;8.80;;;;;;;7.72;81.83;93211.25;521687;28;904;-70
2024/03/07 00:17:56;;;;;;;9.38;8.38;;;;;;;7.74;81.59;93207.94;521727;28;901;-70
2024/03/07 00:18:11;;;;;;;8.88;7.97;;;;;;;7.74;81.59;93205.19;521682;28;834;-70
2024/03/07 00:18:27;;;;;;;9.20;8.20;;;;;;;7.71;81.41;93206.28;521709;28;833;-70
2024/03/07 00:18:42;;;;;;;9.32;8.25;;;;;;;7.68;81.33;93210.84;521679;28;817;-70
2024/03/07 00:18:58;;;;;;;8.80;7.90;;;;;;;7.67;81.53;93211.38;521704;28;1086;-70
2024/03/07 00:19:14;;;;;;;9.00;7.57;;;;;;;7.65;81.31;93201.66;521654;28;825;-70
2024/03/07 00:19:31;;;;;;;9.52;8.00;;;;;;;7.61;81.49;93214.25;521589;28;900;-70
2024/03/07 00:19:47;;;;;;;8.95;7.68;;;;;;;7.61;81.51;93209.50;521696;28;838;-70
2024/03/07 00:20:04;;;;;;;8.80;7.20;;;;;;;7.61;81.66;93204.00;521614;28;825;-70
2024/03/07 00:20:20;;;;;;;9.40;8.05;;;;;;;7.59;81.75;93212.03;521610;28;861;-70
2024/03/07 00:20:35;;;;;;;9.35;8.35;;;;;;;7.58;81.78;93210.56;521694;28;833;-70
2024/03/07 00:20:51;;;;;;;9.73;8.77;;;;;;;7.56;81.76;93210.34;521663;28;765;-70
2024/03/07 00:21:07;;;;;;;9.77;8.77;;;;;;;7.57;81.94;93209.09;521793;28;805;-70
2024/03/07 00:21:22;;;;;;;10.88;8.73;;;;;;;7.59;81.85;93205.81;521487;28;876;-70
2024/03/07 00:21:38;;;;;;;11.40;9.33;;;;;;;7.60;82.22;93205.25;521683;28;1037;-70
2024/03/07 00:21:54;;;;;;;10.20;8.98;;;;;;;7.61;82.04;93209.50;521662;28;911;-70
2024/03/07 00:22:09;;;;;;;9.97;8.93;;;;;;;7.63;82.07;93212.44;521662;28;1040;-70
2024/03/07 00:22:26;;;;;;;10.45;9.35;;;;;;;7.66;82.12;93205.16;521743;28;860;-70
2024/03/07 00:22:42;;;;;;;10.48;9.32;;;;;;;7.70;82.19;93213.03;521568;28;845;-70
2024/03/07 00:22:57;;;;;;;10.70;9.57;;;;;;;7.73;81.98;93214.72;521700;28;986;-70
2024/03/07 00:23:13;;;;;;;12.27;9.60;;;;;;;7.70;81.98;93208.28;521760;28;825;-70
2024/03/07 00:23:28;;;;;;;11.20;8.77;;;;;;;7.72;81.82;93207.75;521653;28;856;-70
2024/03/07 00:23:44;;;;;;;9.25;8.23;;;;;;;7.70;81.54;93202.06;521661;28;841;-70
2024/03/07 00:24:00;;;;;;;9.27;8.23;;;;;;;7.70;81.76;93210.28;521737;28;829;-70
2024/03/07 00:24:16;;;;;;;9.63;8.43;;;;;;;7.73;81.50;93203.75;521518;28;837;-70
2024/03/07 00:24:31;;;;;;;9.80;8.80;;;;;;;7.74;81.42;93205.94;521323;28;857;-70
2024/03/07 00:24:47;;;;;;;10.07;9.07;;;;;;;7.75;81.57;93209.44;521369;28;856;-70
2024/03/07 00:25:06;;;;;;;9.95;8.95;;;;;;;7.76;81.45;93205.41;521338;28;880;-70
2024/03/07 00:25:22;;;;;;;10.27;9.00;;;;;;;7.76;81.51;93208.91;521696;27;840;-70
2024/03/07 00:25:37;;;;;;;11.10;8.77;;;;;;;7.78;81.14;93205.59;521705;28;785;-70
2024/03/07 00:25:53;;;;;;;10.60;8.70;;;;;;;7.76;81.20;93205.41;521708;28;852;-70
2024/03/07 00:26:08;;;;;;;9.35;8.40;;;;;;;7.76;81.24;93205.41;521714;28;894;-71
2024/03/07 00:26:24;;;;;;;9.33;8.33;;;;;;;7.79;80.84;93205.09;521687;28;769;-70
2024/03/07 00:26:42;;;;;;;10.63;8.90;;;;;;;7.78;81.10;93205.59;521705;28;802;-70
2024/03/07 00:26:58;;;;;;;9.80;8.73;;;;;;;7.78;81.20;93202.84;521582;28;849;-70
2024/03/07 00:27:16;;;;;;;10.57;8.80;;;;;;;7.53;81.04;93175.72;521690;28;860;-70
2024/03/07 00:27:32;;;;;;;10.82;9.27;;;;;;;7.76;81.28;93208.16;521648;28;939;-70
2024/03/07 00:27:48;;;;;;;10.27;9.27;;;;;;;7.78;81.37;93200.84;521693;28;856;-70
2024/03/07 00:28:04;;;;;;;10.07;8.82;;;;;;;7.78;81.13;93205.59;521600;28;809;-70
2024/03/07 00:28:19;;;;;;;9.73;8.32;;;;;;;7.75;80.98;93204.69;521536;28;793;-70
2024/03/07 00:28:39;;;;;;;9.60;8.40;;;;;;;7.74;81.01;93208.69;521765;28;860;-70
2024/03/07 00:28:55;;;;;;;10.18;9.00;;;;;;;7.78;80.92;93211.84;521688;28;915;-70
2024/03/07 00:29:10;;;;;;;10.40;8.93;;;;;;;7.79;80.73;93210.59;521617;28;837;-70
2024/03/07 00:29:28;;;;;;;10.83;8.67;;;;;;;7.80;80.75;93206.53;521699;28;865;-70
2024/03/07 00:29:43;;;;;;;10.60;9.07;;;;;;;7.81;80.57;93205.28;519288;28;924;-71
2024/03/07 00:29:59;;;;;;;10.85;9.10;;;;;;;7.77;80.70;93193.91;519495;28;794;-70
2024/03/07 00:30:18;;;;;;;11.02;9.15;;;;;;;7.81;80.64;93204.53;519493;28;790;-70
2024/03/07 00:30:33;;;;;;;11.00;9.43;;;;;;;7.83;80.64;93205.47;519484;28;925;-70
2024/03/07 00:30:49;;;;;;;10.38;8.93;;;;;;;7.83;80.56;93202.00;519446;28;770;-70
2024/03/07 00:31:07;;;;;;;10.38;8.55;;;;;;;7.85;80.49;93205.69;519444;28;809;-70
2024/03/07 00:31:22;;;;;;;10.88;8.45;;;;;;;7.87;80.47;93205.13;519357;28;946;-70
2024/03/07 00:31:37;;;;;;;11.60;8.60;;;;;;;7.89;80.31;93199.84;521010;28;822;-70
2024/03/07 00:31:53;;;;;;;10.73;8.63;;;;;;;7.87;80.03;93203.13;519513;28;829;-70
2024/03/07 00:32:10;;;;;;;9.65;8.32;;;;;;;7.87;80.22;93202.38;519434;28;829;-70
2024/03/07 00:32:29;;;;;;;9.45;8.35;;;;;;;7.87;80.10;93202.38;519441;28;868;-70
2024/03/07 00:32:45;;;;;;;9.13;8.15;;;;;;;7.89;79.90;93211.56;519366;28;1972;-70
2024/03/07 00:33:01;;;;;;;10.88;8.38;;;;;;;7.90;79.93;93198.56;519475;28;830;-70
2024/03/07 00:33:16;;;;;;;10.90;8.50;;;;;;;7.89;79.82;93203.31;519481;28;861;-70
2024/03/07 00:33:32;;;;;;;9.90;8.88;;;;;;;7.88;79.76;93198.38;519492;28;852;-70
2024/03/07 00:33:48;;;;;;;10.30;8.98;;;;;;;7.87;79.76;93197.63;520649;28;1108;-70
2024/03/07 00:34:03;;;;;;;9.43;8.43;;;;;;;7.87;80.00;93202.38;521735;28;769;-70
2024/03/07 00:34:19;;;;;;;9.63;8.30;;;;;;;7.85;79.71;93205.69;521580;28;1074;-70
2024/03/07 00:34:35;;;;;;;10.43;8.73;;;;;;;7.87;80.01;93196.88;521601;28;864;-70
2024/03/07 00:34:50;;;;;;;9.67;8.67;;;;;;;7.88;80.12;93201.88;521703;28;833;-70
2024/03/07 00:35:08;;;;;;;10.02;9.02;;;;;;;7.90;79.79;93201.31;521662;28;840;-70
2024/03/07 00:35:24;;;;;;;10.93;9.50;;;;;;;7.91;79.99;93206.28;521681;28;857;-70
2024/03/07 00:35:39;;;;;;;10.40;9.07;;;;;;;7.91;79.88;93191.78;521709;28;782;-70
2024/03/07 00:35:54;;;;;;;10.33;9.27;;;;;;;7.92;79.89;93201.53;521724;28;790;-70
2024/03/07 00:36:10;;;;;;;11.05;9.95;;;;;;;7.93;79.94;93200.22;521653;28;931;-70
2024/03/07 00:36:25;;;;;;;10.90;9.77;;;;;;;7.93;79.81;93200.22;521738;28;750;-70
2024/03/07 00:36:41;;;;;;;10.38;8.93;;;;;;;7.87;79.71;93199.63;521587;28;903;-70
2024/03/07 00:36:58;;;;;;;9.77;8.70;;;;;;;7.82;80.30;93200.53;521694;28;813;-70
2024/03/07 00:37:15;;;;;;;10.55;9.43;;;;;;;7.82;80.60;93198.50;521565;28;963;-70
2024/03/07 00:37:33;;;;;;;10.57;9.35;;;;;;;7.76;80.35;93203.41;521710;28;876;-70
2024/03/07 00:37:49;;;;;;;10.18;9.07;;;;;;;7.73;80.53;93192.75;521698;28;840;-70
2024/03/07 00:38:04;;;;;;;10.37;9.13;;;;;;;7.72;80.40;93200.25;521644;28;809;-70
2024/03/07 00:38:20;;;;;;;10.85;9.25;;;;;;;7.74;80.49;93194.22;521712;28;781;-70
2024/03/07 00:38:36;;;;;;;10.48;9.30;;;;;;;7.75;80.33;93201.19;521580;28;897;-70
2024/03/07 00:38:54;;;;;;;10.47;9.40;;;;;;;7.76;80.59;93199.91;521654;28;766;-70
2024/03/07 00:39:11;;;;;;;11.48;9.48;;;;;;;7.78;80.53;93200.84;521698;28;869;-70
2024/03/07 00:39:27;;;;;;;11.75;9.48;;;;;;;7.77;80.43;93202.13;521515;28;916;-70
2024/03/07 00:39:43;;;;;;;10.68;9.40;;;;;;;7.69;80.70;93195.09;521637;28;782;-70
2024/03/07 00:39:58;;;;;;;10.27;9.17;;;;;;;7.65;80.88;93193.41;521576;28;1045;-70
2024/03/07 00:40:14;;;;;;;11.35;10.13;;;;;;;7.65;81.09;93198.91;521705;28;838;-70
2024/03/07 00:40:29;;;;;;;13.00;11.30;;;;;;;7.67;81.05;93198.38;521656;28;806;-70
2024/03/07 00:40:45;;;;;;;13.50;11.35;;;;;;;7.67;81.31;93195.63;521602;28;857;-70
2024/03/07 00:41:00;;;;;;;12.50;11.03;;;;;;;7.70;81.33;93202.06;521634;28;985;-70
2024/03/07 00:41:17;;;;;;;12.88;11.52;;;;;;;7.73;81.57;93201.00;521679;28;916;-70
2024/03/07 00:41:32;;;;;;;13.10;11.48;;;;;;;7.76;81.25;93197.16;521654;28;845;-70
2024/03/07 00:41:47;;;;;;;11.63;10.13;;;;;;;7.79;81.31;93201.59;521646;28;826;-69
2024/03/07 00:42:03;;;;;;;11.40;9.63;;;;;;;7.81;81.09;93199.03;521565;28;822;-69
2024/03/07 00:42:19;;;;;;;13.50;9.93;;;;;;;7.81;80.94;93202.53;521583;28;909;-70
2024/03/07 00:42:34;;;;;;;11.85;9.32;;;;;;;7.83;80.68;93199.25;521743;28;1086;-70
2024/03/07 00:42:50;;;;;;;10.10;8.97;;;;;;;7.86;80.64;93201.63;521679;28;762;-70
2024/03/07 00:43:06;;;;;;;10.35;9.18;;;;;;;7.88;80.35;93198.38;521533;28;862;-70
2024/03/07 00:43:22;;;;;;;9.97;8.97;;;;;;;7.88;80.49;93203.88;521559;28;754;-70
2024/03/07 00:43:37;;;;;;;10.75;9.60;;;;;;;7.91;80.23;93208.28;521589;28;801;-70
2024/03/07 00:43:52;;;;;;;11.67;10.47;;;;;;;7.91;80.12;93205.53;521709;28;785;-70
2024/03/07 00:44:08;;;;;;;11.48;10.25;;;;;;;7.91;80.40;93200.78;521648;28;830;-70
2024/03/07 00:44:24;;;;;;;11.57;9.88;;;;;;;7.93;80.20;93211.22;521317;28;1155;-70
2024/03/07 00:44:39;;;;;;;10.37;9.27;;;;;;;7.87;79.79;93191.41;519509;28;802;-70
2024/03/07 00:44:55;;;;;;;10.52;9.38;;;;;;;7.89;79.90;93205.34;519569;28;786;-70
2024/03/07 00:45:11;;;;;;;11.30;9.40;;;;;;;7.89;79.97;93202.59;519662;28;773;-70
2024/03/07 00:45:27;;;;;;;10.57;9.20;;;;;;;7.90;79.78;93201.31;519556;28;905;-69
2024/03/07 00:45:42;;;;;;;10.48;9.35;;;;;;;7.92;79.85;93204.28;519599;28;778;-70
2024/03/07 00:45:57;;;;;;;11.63;9.33;;;;;;;7.91;80.09;93208.28;519626;28;841;-69
2024/03/07 00:46:13;;;;;;;11.85;9.52;;;;;;;7.91;80.15;93208.28;519497;28;865;-69
2024/03/07 00:46:29;;;;;;;11.17;9.97;;;;;;;7.89;80.11;93206.06;519603;28;849;-69
2024/03/07 00:46:45;;;;;;;11.60;10.20;;;;;;;7.89;80.29;93208.09;519610;28;884;-70
2024/03/07 00:47:04;;;;;;;11.55;9.80;;;;;;;7.91;80.17;93205.53;519484;28;1200;-69
2024/03/07 00:47:20;;;;;;;11.85;10.27;;;;;;;7.90;80.32;93204.06;519439;28;1108;-70
2024/03/07 00:47:35;;;;;;;11.73;10.25;;;;;;;7.91;80.49;93206.28;519582;28;810;-70
2024/03/07 00:47:50;;;;;;;11.53;10.33;;;;;;;7.92;80.61;93207.03;519472;28;908;-70
2024/03/07 00:48:06;;;;;;;11.43;10.15;;;;;;;7.94;80.38;93201.72;519610;28;861;-70
2024/03/07 00:48:24;;;;;;;12.13;9.90;;;;;;;7.96;80.40;93201.91;519503;28;845;-70
2024/03/07 00:48:40;;;;;;;11.35;9.57;;;;;;;8.00;80.39;93207.81;519506;28;893;-70
2024/03/07 00:48:55;;;;;;;10.43;9.33;;;;;;;8.02;80.18;93210.75;519559;28;785;-70
2024/03/07 00:49:11;;;;;;;10.77;9.45;;;;;;;7.99;80.17;93209.81;519473;28;775;-70
2024/03/07 00:49:28;;;;;;;11.13;9.43;;;;;;;7.96;79.99;93208.16;519472;28;1464;-70
2024/03/07 00:49:46;;;;;;;10.88;8.98;;;;;;;7.94;79.65;93202.47;519581;28;849;-69
2024/03/07 00:50:01;;;;;;;11.50;9.65;;;;;;;7.97;79.71;93206.88;519526;28;869;-70
2024/03/07 00:50:17;;;;;;;10.63;9.50;;;;;;;7.99;79.42;93209.09;519600;28;782;-70
2024/03/07 00:50:32;;;;;;;10.07;9.07;;;;;;;8.00;79.55;93207.81;519488;28;822;-70
2024/03/07 00:50:47;;;;;;;10.27;9.27;;;;;;;8.03;79.38;93198.50;519567;28;861;-70
2024/03/07 00:51:06;;;;;;;11.80;9.65;;;;;;;8.03;79.25;93198.50;519610;28;778;-70
2024/03/07 00:51:22;;;;;;;13.63;10.38;;;;;;;8.03;79.08;93210.25;519532;28;857;-70
2024/03/07 00:51:39;;;;;;;11.98;10.23;;;;;;;8.04;79.11;93208.22;519578;28;897;-70
2024/03/07 00:51:55;;;;;;;11.70;9.88;;;;;;;8.05;79.08;93210.44;519542;28;891;-70
2024/03/07 00:52:10;;;;;;;11.65;9.75;;;;;;;8.02;78.97;93197.75;519475;28;1128;-70
2024/03/07 00:52:26;;;;;;;10.50;9.13;;;;;;;8.02;78.76;93197.00;519584;28;912;-69
2024/03/07 00:52:41;;;;;;;10.07;8.85;;;;;;;8.02;78.77;93197.00;519485;28;1941;-70
2024/03/07 00:52:57;;;;;;;9.93;8.93;;;;;;;7.94;78.88;93191.47;519615;28;901;-70
2024/03/07 00:53:12;;;;;;;10.88;9.40;;;;;;;7.97;78.74;93203.41;519465;28;782;-70
2024/03/07 00:53:27;;;;;;;12.37;9.67;;;;;;;7.97;78.83;93198.63;519560;28;865;-70
2024/03/07 00:53:43;;;;;;;11.47;9.67;;;;;;;7.99;78.70;93192.59;519578;28;861;-70
2024/03/07 00:53:58;;;;;;;11.35;9.93;;;;;;;7.88;78.81;93181.88;519619;28;853;-70
2024/03/07 00:54:14;;;;;;;12.10;10.23;;;;;;;8.01;78.88;93196.28;519490;28;853;-70
2024/03/07 00:54:29;;;;;;;11.68;10.48;;;;;;;8.01;78.74;93196.28;519560;28;786;-70
2024/03/07 00:54:45;;;;;;;12.97;10.60;;;;;;;8.02;79.13;93202.50;519559;28;810;-70
2024/03/07 00:55:00;;;;;;;13.77;10.30;;;;;;;8.01;79.12;93199.00;519503;28;798;-70
2024/03/07 00:55:16;;;;;;;10.97;9.80;;;;;;;8.03;79.02;93204.00;519630;28;841;-70
2024/03/07 00:55:31;;;;;;;10.88;9.68;;;;;;;8.00;79.17;93194.06;519507;28;845;-70
2024/03/07 00:55:47;;;;;;;11.57;10.37;;;;;;;7.98;79.27;93196.63;519593;28;837;-69
2024/03/07 00:56:02;;;;;;;11.68;10.38;;;;;;;7.96;79.12;93197.16;519413;28;805;-70
2024/03/07 00:56:18;;;;;;;12.30;10.03;;;;;;;7.95;79.48;93192.94;519517;28;813;-70
2024/03/07 00:56:36;;;;;;;12.07;9.95;;;;;;;7.92;79.30;93193.28;519600;28;770;-70
2024/03/07 00:56:52;;;;;;;11.75;9.48;;;;;;;7.90;79.59;93202.06;519353;28;886;-70
2024/03/07 00:57:08;;;;;;;11.00;9.27;;;;;;;7.90;79.44;93201.31;519576;28;870;-70
2024/03/07 00:57:23;;;;;;;10.57;9.23;;;;;;;7.87;79.64;93196.88;519371;28;877;-70
2024/03/07 00:57:39;;;;;;;11.30;9.47;;;;;;;7.86;79.35;93187.19;519566;28;786;-70
2024/03/07 00:57:54;;;;;;;11.68;9.73;;;;;;;7.91;79.68;93192.53;519519;28;845;-70
2024/03/07 00:58:10;;;;;;;11.53;10.13;;;;;;;7.90;79.56;93196.56;519480;28;798;-70
2024/03/07 00:58:27;;;;;;;11.68;10.10;;;;;;;7.91;79.79;93194.53;519463;28;971;-69
2024/03/07 00:58:43;;;;;;;11.70;10.05;;;;;;;7.93;79.71;93191.97;519450;28;814;-70
2024/03/07 00:58:58;;;;;;;11.30;10.10;;;;;;;7.90;79.88;93198.56;519511;28;853;-70
2024/03/07 00:59:14;;;;;;;11.80;10.60;;;;;;;7.91;80.11;93205.53;527881;28;1355;-70
2024/03/07 00:59:29;;;;;;;12.15;10.25;;;;;;;7.88;80.30;93195.63;528026;28;892;-70
2024/03/07 00:59:45;;;;;;;12.20;10.10;;;;;;;7.84;80.29;93193.19;528084;28;952;-69
2024/03/07 01:00:01;;;;;;;12.07;10.30;;;;;;;7.84;80.24;93197.97;527923;28;868;-70
2024/03/07 01:00:20;;;;;;;11.93;10.07;;;;;;;7.85;80.01;93199.44;528059;28;872;-69
2024/03/07 01:00:35;;;;;;;11.68;10.48;;;;;;;7.86;80.10;93192.69;528762;28;955;-70
2024/03/07 01:00:50;;;;;;;11.83;10.50;;;;;;;7.84;80.34;93198.69;528034;28;806;-70
2024/03/07 01:01:06;;;;;;;11.63;10.30;;;;;;;7.84;80.15;93190.44;524353;28;1073;-70
2024/03/07 01:01:22;;;;;;;11.40;9.95;;;;;;;7.85;80.18;93193.94;519460;28;818;-70
2024/03/07 01:01:38;;;;;;;10.67;9.37;;;;;;;7.85;79.92;93191.19;519502;28;782;-70
2024/03/07 01:01:53;;;;;;;10.73;9.50;;;;;;;7.85;79.84;93191.19;519478;28;925;-70
2024/03/07 01:02:09;;;;;;;12.38;9.77;;;;;;;7.83;79.60;93191.00;519516;28;807;-69
2024/03/07 01:02:25;;;;;;;11.77;9.50;;;;;;;7.81;79.62;93193.53;519564;28;778;-70
2024/03/07 01:02:44;;;;;;;11.30;9.65;;;;;;;7.81;79.66;93191.53;519477;28;1010;-70
2024/03/07 01:02:59;;;;;;;12.00;10.05;;;;;;;7.82;79.96;93189.53;519436;28;920;-70
2024/03/07 01:03:17;;;;;;;12.10;10.50;;;;;;;7.82;79.98;93193.00;519591;28;952;-70
2024/03/07 01:03:32;;;;;;;11.60;10.32;;;;;;;7.82;79.99;93192.28;519549;28;881;-70
2024/03/07 01:03:48;;;;;;;11.57;10.03;;;;;;;7.80;80.47;93192.81;519539;28;937;-70
2024/03/07 01:04:03;;;;;;;12.32;10.15;;;;;;;7.78;80.54;93192.59;519585;28;810;-70
2024/03/07 01:04:19;;;;;;;12.37;10.50;;;;;;;7.62;80.70;93171.78;519399;28;877;-69
2024/03/07 01:04:34;;;;;;;12.90;10.95;;;;;;;7.70;80.92;93180.06;519627;28;773;-70
2024/03/07 01:04:50;;;;;;;13.23;10.67;;;;;;;7.65;81.01;93192.66;519520;28;814;-70
2024/03/07 01:05:09;;;;;;;11.63;9.93;;;;;;;7.61;80.95;93195.03;519449;28;818;-69
2024/03/07 01:05:25;;;;;;;10.60;9.50;;;;;;;7.57;81.16;93197.38;519605;28;1088;-69
2024/03/07 01:05:40;;;;;;;10.60;9.50;;;;;;;7.57;81.12;93192.63;519437;28;932;-69
2024/03/07 01:05:56;;;;;;;10.57;9.35;;;;;;;7.54;81.10;93193.69;519566;28;790;-70
2024/03/07 01:06:11;;;;;;;12.10;9.23;;;;;;;7.54;81.00;93187.44;519538;28;806;-70
2024/03/07 01:06:27;;;;;;;12.40;9.40;;;;;;;7.56;81.08;93190.38;519533;28;857;-69
2024/03/07 01:06:43;;;;;;;11.90;9.90;;;;;;;7.56;81.15;93196.63;519514;28;928;-70
2024/03/07 01:06:58;;;;;;;11.90;10.07;;;;;;;7.57;81.35;93192.63;519450;28;940;-70
2024/03/07 01:07:14;;;;;;;11.47;10.00;;;;;;;7.58;81.18;93185.09;519546;28;845;-70
2024/03/07 01:07:31;;;;;;;13.27;10.40;;;;;;;7.60;81.34;93185.31;519565;28;864;-70
2024/03/07 01:07:47;;;;;;;13.35;10.50;;;;;;;7.63;81.54;93186.97;519491;28;889;-70
2024/03/07 01:08:03;;;;;;;12.45;10.73;;;;;;;7.64;81.29;93188.47;519517;28;841;-70
2024/03/07 01:08:18;;;;;;;12.87;10.83;;;;;;;7.65;81.69;93178.94;519481;28;877;-70
2024/03/07 01:08:35;;;;;;;13.57;11.32;;;;;;;7.63;81.80;93193.22;519490;28;857;-70
2024/03/07 01:08:51;;;;;;;13.25;11.35;;;;;;;7.60;82.15;93190.81;519482;28;881;-69
2024/03/07 01:09:13;;;;;;;11.82;9.98;;;;;;;7.59;81.79;93195.56;519546;28;948;-70
2024/03/07 01:09:29;;;;;;;11.02;9.55;;;;;;;7.56;81.55;93193.88;519516;28;862;-70
2024/03/07 01:09:45;;;;;;;12.40;9.68;;;;;;;7.50;81.67;93185.03;519527;28;932;-70
2024/03/07 01:10:00;;;;;;;12.47;9.67;;;;;;;7.49;81.92;93185.56;519435;28;812;-70
2024/03/07 01:10:16;;;;;;;11.80;10.18;;;;;;;7.48;82.26;93181.34;519506;28;913;-70
2024/03/07 01:10:32;;;;;;;13.27;11.02;;;;;;;7.27;82.41;93155.88;519551;28;793;-70
2024/03/07 01:10:47;;;;;;;13.23;10.87;;;;;;;7.44;82.78;93189.19;519588;28;755;-70
2024/03/07 01:11:09;;;;;;;12.63;10.05;;;;;;;7.45;82.73;93183.16;519639;28;924;-70
2024/03/07 01:11:25;;;;;;;11.70;9.88;;;;;;;7.48;82.78;93184.09;519539;28;837;-70
2024/03/07 01:11:42;;;;;;;11.65;9.95;;;;;;;7.25;82.54;93153.66;519653;28;819;-69
2024/03/07 01:11:59;;;;;;;11.70;10.18;;;;;;;7.45;82.72;93191.38;519553;28;916;-70
2024/03/07 01:12:15;;;;;;;11.50;10.27;;;;;;;7.43;82.72;93182.94;519487;28;905;-70
2024/03/07 01:12:31;;;;;;;13.00;10.80;;;;;;;7.46;82.59;93183.88;519445;28;857;-69
2024/03/07 01:12:46;;;;;;;14.23;10.73;;;;;;;7.47;82.80;93185.38;519297;28;1911;-70
2024/03/07 01:13:02;;;;;;;15.70;11.27;;;;;;;7.47;82.91;93177.13;519317;28;883;-70
2024/03/07 01:13:22;;;;;;;16.23;11.33;;;;;;;7.46;82.95;93181.88;519284;28;811;-70
2024/03/07 01:13:41;;;;;;;13.55;10.73;;;;;;;7.37;83.25;93163.13;519385;28;830;-70
2024/03/07 01:13:56;;;;;;;13.75;10.80;;;;;;;7.48;83.25;93179.34;519359;28;834;-70
2024/03/07 01:14:12;;;;;;;14.40;10.48;;;;;;;7.50;83.25;93178.78;527721;28;1112;-70
2024/03/07 01:14:27;;;;;;;13.97;10.47;;;;;;;7.50;83.25;93179.53;527851;28;920;-70
2024/03/07 01:14:42;;;;;;;13.05;10.60;;;;;;;7.49;83.26;93178.06;527868;28;805;-70
2024/03/07 01:14:58;;;;;;;12.23;9.93;;;;;;;7.42;83.37;93167.75;527786;28;908;-70
2024/03/07 01:15:14;;;;;;;11.70;9.85;;;;;;;7.33;83.50;93179.19;527752;28;880;-69
2024/03/07 01:15:32;;;;;;;12.20;10.25;;;;;;;7.28;83.80;93179.31;527815;28;810;-70
2024/03/07 01:15:48;;;;;;;12.77;10.52;;;;;;;7.30;84.08;93188.50;528063;28;845;-70
2024/03/07 01:16:04;;;;;;;13.40;10.73;;;;;;;7.29;83.98;93178.78;524642;28;813;-70
2024/03/07 01:16:20;;;;;;;13.47;10.83;;;;;;;7.32;84.14;93177.00;519423;28;865;-70
2024/03/07 01:16:35;;;;;;;13.05;11.07;;;;;;;7.33;84.04;93178.44;520896;28;1156;-70
2024/03/07 01:16:50;;;;;;;13.35;11.07;;;;;;;7.35;84.07;93182.13;521518;28;862;-70
2024/03/07 01:17:07;;;;;;;12.57;10.80;;;;;;;7.31;84.05;93175.50;521656;28;813;-70
2024/03/07 01:17:24;;;;;;;12.70;10.80;;;;;;;7.31;84.08;93175.50;521598;28;833;-70
2024/03/07 01:17:39;;;;;;;13.88;10.55;;;;;;;7.27;84.21;93181.34;521623;28;860;-70
2024/03/07 01:17:55;;;;;;;14.50;10.73;;;;;;;7.29;84.30;93178.78;521647;28;845;-70
2024/03/07 01:18:10;;;;;;;12.33;11.00;;;;;;;7.11;84.44;93152.22;521453;28;872;-70